Time;durP1;ratioP1;P1;durP2;ratioP2;P2;SDS_P1;SDS_P2;PMS_P1;PMS_P2;Temp;Humidity;BMP_temperature;BMP_pressure;BME280_temperature;BME280_humidity;BME280_pressure;Samples;Min_cycle;Max_cycle;Signal;HPM_P1;HPM_P2
2021/04/10 00:00:20;;;;;;;;;42.00;37.30;;;;;5.71;49.94;101536.55;486147;112;386833;-73
2021/04/10 00:01:24;;;;;;;;;34.50;33.00;;;;;5.66;50.02;101535.03;486218;112;385704;-74
2021/04/10 00:02:28;;;;;;;;;40.40;35.50;;;;;5.68;50.14;101534.05;483878;112;385353;-75
2021/04/10 00:03:32;;;;;;;;;42.80;37.00;;;;;5.76;49.75;101536.39;485938;112;385607;-74
2021/04/10 00:04:36;;;;;;;;;39.50;36.20;;;;;5.76;49.75;101536.39;486391;112;386443;-72
2021/04/10 00:05:40;;;;;;;;;39.00;33.80;;;;;5.69;49.83;101540.19;484124;112;384671;-75
2021/04/10 00:06:45;;;;;;;;;43.80;40.40;;;;;5.62;50.37;101536.94;484070;112;385740;-73
2021/04/10 00:07:49;;;;;;;;;33.60;26.30;;;;;5.62;50.37;101536.94;486165;112;389777;-73
2021/04/10 00:08:53;;;;;;;;;44.50;37.00;;;;;5.47;50.95;101544.60;484352;112;387215;-74
2021/04/10 00:09:57;;;;;;;;;39.00;36.20;;;;;5.58;50.53;101534.50;485933;112;386258;-74
2021/04/10 00:11:01;;;;;;;;;40.40;35.10;;;;;5.48;50.65;101534.00;484333;112;387114;-74
2021/04/10 00:12:06;;;;;;;;;41.80;36.60;;;;;5.48;50.56;101538.41;484360;112;386720;-75
2021/04/10 00:13:10;;;;;;;;;39.70;34.40;;;;;5.38;50.49;101542.33;485919;112;386601;-75
2021/04/10 00:14:14;;;;;;;;;44.30;38.80;;;;;5.42;50.58;101533.38;486419;112;392306;-77
2021/04/10 00:15:18;;;;;;;;;44.30;37.70;;;;;5.42;50.58;101533.38;483713;112;392608;-75
2021/04/10 00:16:24;;;;;;;;;36.50;34.60;;;;;5.43;50.41;101535.08;483615;112;386333;-76
2021/04/10 00:17:27;;;;;;;;;29.10;21.30;;;;;5.41;50.40;101543.08;480958;112;382345;-77
2021/04/10 00:18:31;;;;;;;;;37.80;34.80;;;;;5.41;50.40;101543.08;479274;114;385781;-75
2021/04/10 00:19:35;;;;;;;;;42.40;38.10;;;;;5.40;50.64;101543.12;479650;114;392061;-76
2021/04/10 00:20:39;;;;;;;;;41.80;36.70;;;;;5.53;50.17;101545.22;479253;114;386064;-76
2021/04/10 00:21:43;;;;;;;;;40.10;36.90;;;;;5.50;50.48;101542.70;479725;114;386504;-76
2021/04/10 00:22:47;;;;;;;;;42.30;35.20;;;;;5.61;49.64;101542.29;479660;114;386939;-76
2021/04/10 00:23:51;;;;;;;;;46.10;39.90;;;;;5.50;50.19;101541.84;479720;114;386266;-77
2021/04/10 00:24:54;;;;;;;;;44.60;37.10;;;;;5.50;50.19;101541.84;479606;114;394144;-76
2021/04/10 00:25:58;;;;;;;;;40.60;35.40;;;;;5.51;50.21;101538.30;479692;114;385638;-76
2021/04/10 00:27:02;;;;;;;;;38.20;34.40;;;;;5.55;49.88;101547.81;479557;114;391636;-76
2021/04/10 00:28:07;;;;;;;;;23.90;17.70;;;;;5.52;49.96;101548.77;479751;114;389532;-76
2021/04/10 00:29:11;;;;;;;;;42.50;37.90;;;;;5.52;49.96;101548.77;479372;114;386957;-74
2021/04/10 00:30:17;;;;;;;;;42.50;37.20;;;;;5.58;49.91;101547.69;479362;114;391363;-76
2021/04/10 00:31:21;;;;;;;;;41.60;37.50;;;;;5.58;49.91;101547.69;479199;113;386513;-77
2021/04/10 00:32:25;;;;;;;;;27.10;21.90;;;;;5.57;50.27;101551.23;479750;114;382081;-74
2021/04/10 00:33:29;;;;;;;;;43.30;38.50;;;;;5.53;50.19;101539.08;479225;114;387884;-74
2021/04/10 00:34:33;;;;;;;;;38.20;32.30;;;;;5.53;50.19;101539.08;479262;114;385635;-77
2021/04/10 00:35:37;;;;;;;;;45.00;38.30;;;;;5.52;50.15;101538.22;479701;114;386961;-76
2021/04/10 00:36:41;;;;;;;;;43.80;36.50;;;;;5.66;49.48;101537.67;479452;114;386858;-75
2021/04/10 00:37:45;;;;;;;;;41.70;38.20;;;;;5.66;49.48;101537.67;479617;114;391659;-74
2021/04/10 00:38:49;;;;;;;;;31.30;25.40;;;;;5.66;49.25;101543.81;479761;114;384715;-75
2021/04/10 00:39:53;;;;;;;;;42.90;37.20;;;;;5.59;49.46;101539.70;479736;114;386907;-75
2021/04/10 00:40:57;;;;;;;;;40.00;34.80;;;;;5.50;49.72;101549.76;479245;114;384217;-75
2021/04/10 00:42:01;;;;;;;;;48.10;39.20;;;;;5.50;49.72;101549.76;479706;114;386080;-75
2021/04/10 00:43:05;;;;;;;;;42.80;33.60;;;;;5.51;49.74;101543.57;479690;114;387192;-74
2021/04/10 00:44:08;;;;;;;;;45.10;39.80;;;;;5.60;49.61;101551.12;479250;114;386455;-75
2021/04/10 00:45:13;;;;;;;;;36.80;32.70;;;;;5.64;49.30;101544.80;479193;114;386141;-75
2021/04/10 00:46:19;;;;;;;;;48.10;37.60;;;;;5.59;49.48;101544.11;478816;114;386603;-77
2021/04/10 00:47:23;;;;;;;;;39.70;37.20;;;;;5.64;49.31;101548.31;479631;114;391423;-75
2021/04/10 00:48:27;;;;;;;;;47.40;40.50;;;;;5.60;49.52;101549.34;479637;114;389368;-75
2021/04/10 00:49:31;;;;;;;;;43.00;37.10;;;;;5.55;49.59;101555.73;479684;114;386678;-75
2021/04/10 00:50:35;;;;;;;;;50.40;43.30;;;;;5.55;49.59;101555.73;479510;114;387396;-75
2021/04/10 00:51:39;;;;;;;;;49.40;41.00;;;;;5.65;49.34;101546.50;479707;114;390226;-75
2021/04/10 00:52:43;;;;;;;;;48.70;40.30;;;;;5.65;49.34;101546.50;479569;114;390587;-74
2021/04/10 00:53:46;;;;;;;;;46.50;41.00;;;;;5.73;48.90;101537.38;479615;114;386589;-74
2021/04/10 00:54:51;;;;;;;;;47.30;37.40;;;;;5.69;49.01;101548.97;479663;114;387187;-74
2021/04/10 00:55:57;;;;;;;;;43.00;38.90;;;;;5.69;49.01;101548.97;479396;114;385713;-74
2021/04/10 00:57:01;;;;;;;;;44.70;38.90;;;;;5.75;48.42;101548.72;479118;114;385308;-74
2021/04/10 00:58:05;;;;;;;;;49.20;41.10;;;;;5.75;48.42;101548.72;479636;114;391901;-71
2021/04/10 00:59:08;;;;;;;;;52.80;42.50;;;;;5.49;49.53;101545.42;479655;114;387069;-73
2021/04/10 01:00:14;;;;;;;;;47.60;40.10;;;;;5.52;49.10;101540.02;479063;114;387140;-74
2021/04/10 01:01:18;;;;;;;;;43.00;37.20;;;;;5.52;49.10;101540.02;478708;114;386511;-74
2021/04/10 01:02:22;;;;;;;;;52.30;39.60;;;;;5.54;49.11;101546.09;479564;114;393971;-74
2021/04/10 01:03:26;;;;;;;;;43.10;38.30;;;;;5.59;48.95;101541.47;479723;114;385012;-74
2021/04/10 01:04:30;;;;;;;;;47.50;40.60;;;;;5.47;48.95;101544.60;479683;114;385830;-75
2021/04/10 01:05:34;;;;;;;;;47.30;40.40;;;;;5.47;48.95;101544.60;479649;114;386704;-76
2021/04/10 01:06:38;;;;;;;;;31.10;28.10;;;;;5.36;49.30;101546.81;479508;114;384162;-74
2021/04/10 01:07:43;;;;;;;;;50.60;42.10;;;;;5.26;49.77;101541.87;479637;114;387097;-76
2021/04/10 01:08:47;;;;;;;;;39.00;37.50;;;;;5.29;49.72;101539.14;479707;114;385885;-75
2021/04/10 01:09:50;;;;;;;;;45.70;40.00;;;;;5.29;49.72;101539.14;479677;114;386238;-76
2021/04/10 01:10:55;;;;;;;;;37.40;34.40;;;;;5.42;48.90;101546.58;479642;114;392785;-76
2021/04/10 01:12:08;;;;;;;;;46.80;41.50;;;;;5.41;48.66;101539.57;479450;114;386096;-77
2021/04/10 01:13:24;;;;;;;;;49.20;40.70;;;;;5.47;48.81;101537.55;479272;113;386154;-76
2021/04/10 01:14:33;;;;;;;;;39.60;34.00;;;;;5.47;48.81;101537.55;479100;114;390102;-75
2021/04/10 01:15:42;;;;;;;;;37.60;32.20;;;;;5.28;48.92;101536.55;479459;114;385028;-76
2021/04/10 01:16:49;;;;;;;;;49.50;40.40;;;;;5.24;49.33;101537.58;479123;114;387127;-75
2021/04/10 01:17:56;;;;;;;;;47.90;40.80;;;;;5.24;49.33;101537.58;479130;114;387458;-75
2021/04/10 01:19:04;;;;;;;;;52.80;42.20;;;;;5.36;48.89;101534.46;479410;114;387799;-75
2021/04/10 01:20:46;;;;;;;;;28.00;23.90;;;;;5.36;48.89;101534.46;479604;114;383823;-75
2021/04/10 01:21:52;;;;;;;;;46.80;41.50;;;;;5.12;49.28;101528.37;478515;114;391587;-75
2021/04/10 01:23:27;;;;;;;;;46.70;37.40;;;;;5.12;49.28;101528.37;470769;115;386790;-74
2021/04/10 01:24:42;;;;;;;;;51.70;40.60;;;;;5.30;49.21;101542.61;477374;113;385524;-75
2021/04/10 01:25:54;;;;;;;;;51.20;44.30;;;;;5.30;49.21;101542.61;479383;114;387711;-75
2021/04/10 01:27:38;;;;;;;;;52.80;42.90;;;;;5.32;48.93;101538.16;479207;114;387104;-74
2021/04/10 01:28:48;;;;;;;;;56.00;42.10;;;;;5.37;49.09;101545.87;471561;114;395087;-75
2021/04/10 01:29:55;;;;;;;;;50.20;42.00;;;;;5.25;49.58;101537.53;479312;114;387442;-75
2021/04/10 01:30:59;;;;;;;;;50.90;41.40;;;;;5.25;49.58;101537.53;479171;114;385922;-76
2021/04/10 01:32:04;;;;;;;;;51.30;42.60;;;;;5.19;49.71;101545.69;479339;114;391976;-75
2021/04/10 01:33:09;;;;;;;;;46.90;40.60;;;;;5.33;49.13;101539.86;479645;114;390066;-74
2021/04/10 01:34:16;;;;;;;;;49.20;40.90;;;;;5.21;49.73;101535.92;479377;114;385917;-75
2021/04/10 01:35:20;;;;;;;;;48.00;39.90;;;;;5.21;49.73;101535.92;479098;114;392595;-76
2021/04/10 01:36:28;;;;;;;;;53.50;42.00;;;;;5.16;49.54;101543.17;479387;114;386871;-75
2021/04/10 01:37:32;;;;;;;;;54.70;42.40;;;;;5.08;49.75;101542.58;479126;114;386849;-75
2021/04/10 01:38:36;;;;;;;;;54.30;44.90;;;;;5.12;49.64;101544.20;479364;114;385145;-75
2021/04/10 01:39:40;;;;;;;;;25.90;21.00;;;;;5.12;49.64;101544.20;479745;114;380622;-76
2021/04/10 01:40:45;;;;;;;;;51.40;41.10;;;;;5.27;48.89;101542.73;479390;114;386059;-75
2021/04/10 01:41:50;;;;;;;;;48.20;39.20;;;;;5.21;49.49;101543.84;479178;114;386455;-75
2021/04/10 01:42:55;;;;;;;;;57.30;43.90;;;;;5.21;49.49;101543.84;479316;114;393860;-75
2021/04/10 01:44:00;;;;;;;;;55.10;44.90;;;;;5.33;49.26;101537.22;470427;115;388123;-76
2021/04/10 01:45:06;;;;;;;;;55.30;44.00;;;;;5.27;49.04;101542.73;472985;115;392815;-75
2021/04/10 01:46:10;;;;;;;;;55.40;42.60;;;;;5.22;49.34;101544.70;479420;114;386933;-75
2021/04/10 01:47:15;;;;;;;;;50.20;43.00;;;;;5.14;49.98;101547.62;479716;114;387000;-77
2021/04/10 01:48:20;;;;;;;;;54.70;45.60;;;;;5.13;49.50;101543.29;479129;114;384383;-75
2021/04/10 01:49:25;;;;;;;;;56.50;46.40;;;;;5.09;49.91;101548.72;479430;114;385901;-76
2021/04/10 01:50:30;;;;;;;;;57.30;46.30;;;;;5.15;49.49;101540.58;479126;114;386004;-75
2021/04/10 01:51:34;;;;;;;;;50.10;43.70;;;;;5.15;49.49;101540.58;479687;114;387282;-74
2021/04/10 01:52:38;;;;;;;;;38.70;31.70;;;;;5.09;50.03;101544.31;479682;114;385645;-77
2021/04/10 01:53:42;;;;;;;;;52.80;42.80;;;;;4.93;50.27;101548.44;479555;114;388228;-78
2021/04/10 01:54:46;;;;;;;;;59.10;46.20;;;;;5.00;49.98;101538.53;471187;116;387656;-76
2021/04/10 01:55:50;;;;;;;;;36.20;28.30;;;;;5.00;49.98;101538.53;473696;115;384809;-78
2021/04/10 01:56:56;;;;;;;;;56.20;45.50;;;;;4.93;50.05;101545.80;480890;113;386771;-77
2021/04/10 01:58:02;;;;;;;;;61.00;47.00;;;;;4.93;50.05;101545.80;480983;113;387046;-77
2021/04/10 01:59:07;;;;;;;;;54.70;43.00;;;;;4.96;50.17;101548.33;479335;114;386776;-77
2021/04/10 02:00:23;;;;;;;;;54.30;44.10;;;;;5.03;49.95;101551.59;478548;114;386970;-77
2021/04/10 02:01:29;;;;;;;;;56.60;46.80;;;;;4.94;50.33;101544.03;479168;114;386919;-77
2021/04/10 02:02:34;;;;;;;;;57.50;47.90;;;;;4.84;50.28;101542.65;479805;114;385297;-77
2021/04/10 02:03:38;;;;;;;;;45.90;36.90;;;;;4.86;49.94;101551.34;479272;114;387013;-77
2021/04/10 02:04:43;;;;;;;;;48.30;40.90;;;;;4.79;50.41;101555.98;479713;114;385906;-77
2021/04/10 02:05:48;;;;;;;;;52.60;41.00;;;;;4.79;50.41;101555.98;478716;114;387740;-75
2021/04/10 02:07:00;;;;;;;;;47.10;39.50;;;;;4.87;50.25;101547.80;463935;114;385811;-78
2021/04/10 02:08:05;;;;;;;;;48.10;41.30;;;;;4.75;50.69;101555.23;470885;116;393627;-77
2021/04/10 02:09:09;;;;;;;;;52.30;42.30;;;;;4.88;50.20;101555.67;473130;115;388500;-77
2021/04/10 02:10:16;;;;;;;;;50.90;41.20;;;;;4.96;50.06;101550.09;479996;113;393494;-78
2021/04/10 02:11:24;;;;;;;;;55.20;42.70;;;;;4.96;50.06;101550.09;473131;113;387535;-78
2021/04/10 02:12:30;;;;;;;;;46.00;39.60;;;;;5.02;49.82;101550.73;480469;113;386673;-77
2021/04/10 02:13:39;;;;;;;;;48.40;41.90;;;;;5.02;49.82;101550.73;479942;113;388552;-76
2021/04/10 02:14:44;;;;;;;;;48.70;41.50;;;;;5.05;50.16;101542.70;479469;114;385173;-76
2021/04/10 02:15:50;;;;;;;;;45.40;40.30;;;;;5.04;49.15;101543.61;479424;114;385049;-76
2021/04/10 02:16:56;;;;;;;;;37.50;28.10;;;;;5.04;49.56;101556.79;470898;115;385911;-75
2021/04/10 02:18:01;;;;;;;;;53.40;42.00;;;;;5.07;49.29;101555.84;471090;116;387215;-77
2021/04/10 02:19:06;;;;;;;;;44.50;38.70;;;;;5.09;49.20;101548.72;479915;114;386286;-75
2021/04/10 02:20:12;;;;;;;;;50.50;41.90;;;;;5.13;49.17;101547.70;479950;114;395999;-76
2021/04/10 02:21:24;;;;;;;;;48.10;40.60;;;;;5.19;49.20;101543.05;479586;114;385390;-76
2021/04/10 02:22:23;;;;;;;;;45.00;39.50;;;;;5.27;48.93;101548.87;478610;114;386422;-75
2021/04/10 02:23:28;;;;;;;;;42.20;36.30;;;;;5.27;48.93;101548.87;470363;115;391442;-76
2021/04/10 02:24:34;;;;;;;;;52.40;41.70;;;;;5.32;48.77;101546.08;470623;116;386321;-76
2021/04/10 02:25:39;;;;;;;;;52.60;43.10;;;;;5.32;48.77;101546.08;479284;114;386704;-76
2021/04/10 02:26:46;;;;;;;;;53.60;43.60;;;;;5.22;48.90;101549.98;479416;114;387347;-77
2021/04/10 02:27:51;;;;;;;;;50.20;41.60;;;;;5.10;48.87;101551.31;478963;114;386693;-76
2021/04/10 02:28:57;;;;;;;;;50.30;42.10;;;;;5.13;48.88;101556.47;479737;114;386176;-76
2021/04/10 02:30:01;;;;;;;;;44.50;38.60;;;;;5.11;49.31;101549.52;479508;114;385029;-76
2021/04/10 02:31:05;;;;;;;;;50.50;43.40;;;;;5.11;49.31;101549.52;479476;114;384837;-76
2021/04/10 02:32:11;;;;;;;;;47.60;37.60;;;;;5.16;49.15;101550.22;479637;114;386131;-76
2021/04/10 02:33:19;;;;;;;;;46.60;40.60;;;;;5.19;49.15;101552.73;478606;114;386411;-75
2021/04/10 02:34:25;;;;;;;;;50.80;40.90;;;;;5.19;49.15;101552.73;479386;114;386116;-76
2021/04/10 02:35:32;;;;;;;;;55.70;45.50;;;;;5.10;48.81;101551.31;479342;114;387748;-75
2021/04/10 02:36:37;;;;;;;;;38.50;29.80;;;;;5.09;49.07;101560.13;470439;115;386982;-77
2021/04/10 02:37:41;;;;;;;;;53.50;43.60;;;;;5.09;49.07;101560.13;465512;117;386770;-74
2021/04/10 02:38:47;;;;;;;;;50.60;42.60;;;;;5.11;48.93;101557.42;472827;115;385844;-75
2021/04/10 02:39:51;;;;;;;;;52.50;42.60;;;;;5.11;48.93;101557.42;479627;114;391607;-75
2021/04/10 02:40:58;;;;;;;;;51.40;39.50;;;;;5.15;48.78;101543.21;479424;114;387754;-77
2021/04/10 02:42:03;;;;;;;;;41.70;37.50;;;;;5.15;48.78;101543.21;479078;114;385914;-76
2021/04/10 02:43:08;;;;;;;;;47.30;40.30;;;;;5.03;48.95;101554.23;479486;114;386257;-77
2021/04/10 02:44:13;;;;;;;;;50.10;41.10;;;;;4.90;49.46;101559.09;470350;116;389409;-75
2021/04/10 02:45:23;;;;;;;;;49.10;40.20;;;;;4.82;49.59;101553.23;472974;115;385947;-75
2021/04/10 02:46:28;;;;;;;;;48.10;36.40;;;;;4.91;49.49;101555.55;479331;114;391698;-76
2021/04/10 02:47:34;;;;;;;;;52.80;43.20;;;;;4.97;49.28;101555.33;479081;114;385815;-78
2021/04/10 02:48:42;;;;;;;;;51.00;41.70;;;;;4.96;49.46;101556.23;479432;114;387206;-75
2021/04/10 02:49:52;;;;;;;;;47.00;40.80;;;;;4.82;49.63;101555.87;479743;114;384831;-77
2021/04/10 02:50:57;;;;;;;;;51.30;41.50;;;;;4.83;49.72;101556.73;470897;115;386161;-76
2021/04/10 02:52:01;;;;;;;;;51.50;42.60;;;;;4.83;49.72;101556.73;473396;115;386944;-77
2021/04/10 02:53:07;;;;;;;;;50.00;41.60;;;;;4.78;49.50;101559.55;479671;114;386997;-78
2021/04/10 02:54:13;;;;;;;;;55.20;42.00;;;;;4.93;49.34;101558.12;479554;114;386381;-76
2021/04/10 02:55:19;;;;;;;;;56.80;45.50;;;;;4.98;49.03;101559.66;479493;114;387496;-75
2021/04/10 02:56:27;;;;;;;;;56.30;43.70;;;;;4.98;49.03;101559.66;479498;114;386905;-76
2021/04/10 02:57:31;;;;;;;;;57.90;46.70;;;;;5.01;48.96;101556.91;479138;113;385193;-76
2021/04/10 02:58:35;;;;;;;;;57.70;44.30;;;;;5.00;49.44;101562.25;479741;114;385707;-75
2021/04/10 02:59:40;;;;;;;;;53.80;43.80;;;;;5.03;49.35;101559.50;471011;115;385803;-75
2021/04/10 03:00:45;;;;;;;;;52.90;42.50;;;;;5.10;49.35;101563.64;473271;115;387055;-76
2021/04/10 03:01:51;;;;;;;;;54.60;44.40;;;;;5.14;48.67;101559.94;479158;114;386335;-73
2021/04/10 03:02:56;;;;;;;;;48.30;39.20;;;;;5.10;48.74;101561.86;470822;116;386857;-75
2021/04/10 03:04:00;;;;;;;;;53.80;43.90;;;;;5.04;49.16;101571.78;465416;117;385447;-77
2021/04/10 03:05:08;;;;;;;;;49.50;40.60;;;;;5.04;49.16;101571.78;463240;116;385033;-77
2021/04/10 03:06:12;;;;;;;;;48.20;40.60;;;;;5.17;48.92;101565.96;471223;114;385636;-73
2021/04/10 03:07:17;;;;;;;;;52.00;43.30;;;;;5.17;48.92;101565.96;479686;114;386537;-73
2021/04/10 03:08:22;;;;;;;;;48.30;41.60;;;;;5.28;48.84;101565.56;479513;114;384737;-79
2021/04/10 03:09:28;;;;;;;;;57.00;44.20;;;;;5.30;48.76;101575.13;479278;114;394754;-79
2021/04/10 03:10:33;;;;;;;;;52.20;42.90;;;;;5.30;48.76;101575.13;479489;114;386927;-78
2021/04/10 03:11:37;;;;;;;;;43.50;38.90;;;;;5.29;48.36;101570.80;479354;114;384700;-77
2021/04/10 03:12:41;;;;;;;;;53.10;41.80;;;;;5.31;48.22;101568.95;479557;114;387104;-77
2021/04/10 03:13:45;;;;;;;;;47.70;41.50;;;;;5.31;48.22;101568.95;471035;115;387114;-77
2021/04/10 03:14:50;;;;;;;;;54.40;42.70;;;;;5.32;48.51;101567.17;470703;116;387563;-77
2021/04/10 03:15:56;;;;;;;;;50.00;43.30;;;;;5.25;48.80;101571.83;479142;114;386607;-78
2021/04/10 03:17:02;;;;;;;;;57.30;44.50;;;;;5.30;48.71;101569.86;479154;113;386627;-79
2021/04/10 03:18:06;;;;;;;;;60.30;49.40;;;;;5.28;48.64;101574.34;479656;114;386599;-77
2021/04/10 03:19:11;;;;;;;;;41.00;33.70;;;;;5.16;48.78;101587.14;479399;114;386312;-78
2021/04/10 03:20:17;;;;;;;;;50.60;42.20;;;;;5.14;48.84;101581.04;479199;114;387056;-78
2021/04/10 03:21:22;;;;;;;;;51.60;41.80;;;;;5.18;48.96;101580.02;470766;115;386681;-78
2021/04/10 03:22:28;;;;;;;;;50.80;40.10;;;;;5.18;48.96;101580.02;470941;114;390857;-77
2021/04/10 03:23:32;;;;;;;;;44.10;35.70;;;;;5.12;48.68;101581.11;479593;114;386172;-77
2021/04/10 03:24:37;;;;;;;;;52.70;42.80;;;;;5.12;48.68;101581.11;479385;114;385536;-76
2021/04/10 03:25:40;;;;;;;;;58.60;45.80;;;;;5.13;48.76;101581.98;479660;114;385192;-76
2021/04/10 03:26:45;;;;;;;;;48.60;34.90;;;;;5.02;49.09;101579.73;478970;114;387730;-74
2021/04/10 03:27:51;;;;;;;;;48.10;42.00;;;;;5.01;49.05;101578.00;478705;114;387363;-76
2021/04/10 03:28:55;;;;;;;;;58.90;46.10;;;;;5.01;49.05;101578.00;479688;114;392806;-75
2021/04/10 03:29:59;;;;;;;;;57.10;45.00;;;;;4.89;49.62;101569.69;479292;114;386240;-75
2021/04/10 03:31:05;;;;;;;;;42.90;39.10;;;;;4.91;49.52;101575.78;478486;114;385230;-76
2021/04/10 03:32:10;;;;;;;;;55.90;41.90;;;;;4.96;49.48;101574.69;470720;115;386284;-75
2021/04/10 03:33:16;;;;;;;;;57.10;46.30;;;;;4.96;49.48;101574.69;471325;116;386157;-75
2021/04/10 03:34:19;;;;;;;;;53.30;42.90;;;;;5.01;49.20;101572.73;479643;114;387404;-75
2021/04/10 03:35:26;;;;;;;;;60.70;49.90;;;;;5.01;49.20;101572.73;479638;114;391426;-73
2021/04/10 03:36:30;;;;;;;;;66.30;50.70;;;;;5.16;49.17;101577.45;479445;114;385929;-73
2021/04/10 03:37:34;;;;;;;;;60.60;45.40;;;;;5.21;48.93;101575.48;479615;114;394550;-73
2021/04/10 03:38:38;;;;;;;;;53.50;41.70;;;;;5.21;48.93;101575.48;479087;114;386303;-71
2021/04/10 03:39:47;;;;;;;;;50.60;41.60;;;;;5.24;48.74;101580.64;478845;114;385478;-75
2021/04/10 03:40:52;;;;;;;;;54.00;40.70;;;;;5.24;48.74;101580.64;479129;114;386418;-76
2021/04/10 03:41:57;;;;;;;;;44.70;38.80;;;;;5.29;48.50;101576.08;479737;114;384795;-75
2021/04/10 03:43:01;;;;;;;;;48.60;38.40;;;;;5.36;48.11;101578.47;479407;114;386505;-75
2021/04/10 03:44:07;;;;;;;;;48.00;39.20;;;;;5.40;48.13;101580.05;478795;114;386909;-75
2021/04/10 03:45:15;;;;;;;;;52.60;41.70;;;;;5.44;47.91;101573.75;479416;114;385984;-75
2021/04/10 03:46:21;;;;;;;;;47.60;40.10;;;;;5.44;47.91;101573.75;478721;114;386600;-72
2021/04/10 03:47:25;;;;;;;;;40.70;36.10;;;;;5.48;47.91;101583.27;479358;114;388504;-74
2021/04/10 03:48:29;;;;;;;;;53.10;40.80;;;;;5.52;48.30;101585.71;470891;116;392917;-73
2021/04/10 03:49:35;;;;;;;;;44.70;37.50;;;;;5.52;48.30;101585.71;470575;116;386261;-73
2021/04/10 03:50:40;;;;;;;;;45.20;39.00;;;;;5.31;48.75;101576.86;479411;114;385821;-73
2021/04/10 03:51:44;;;;;;;;;46.30;38.30;;;;;5.26;48.99;101578.80;479073;114;386625;-72
2021/04/10 03:52:48;;;;;;;;;55.90;42.60;;;;;5.26;48.99;101578.80;479686;114;389239;-73
2021/04/10 03:53:52;;;;;;;;;49.90;40.80;;;;;5.32;48.96;101578.59;479684;114;385995;-72
2021/04/10 03:54:56;;;;;;;;;44.60;38.10;;;;;5.29;48.71;101580.48;479451;114;387472;-72
2021/04/10 03:56:00;;;;;;;;;49.20;40.30;;;;;5.17;49.25;101584.42;479294;114;385819;-71
2021/04/10 03:57:06;;;;;;;;;50.20;41.10;;;;;5.17;49.25;101584.42;470653;116;386971;-72
2021/04/10 03:58:10;;;;;;;;;30.80;26.60;;;;;5.25;49.11;101582.37;473314;115;382126;-71
2021/04/10 03:59:16;;;;;;;;;53.50;41.10;;;;;5.15;49.69;101583.63;480565;113;387620;-73
2021/04/10 04:00:23;;;;;;;;;51.60;41.50;;;;;5.15;49.69;101583.63;480023;113;387557;-72
2021/04/10 04:01:29;;;;;;;;;48.00;40.40;;;;;5.24;49.56;101596.47;480313;113;385035;-72
2021/04/10 04:02:33;;;;;;;;;40.00;32.80;;;;;5.30;49.60;101590.09;479402;114;385903;-73
2021/04/10 04:03:37;;;;;;;;;46.40;38.80;;;;;5.30;49.60;101590.09;479723;114;387283;-73
2021/04/10 04:04:41;;;;;;;;;43.10;39.10;;;;;5.23;49.88;101585.99;479670;114;385534;-74
2021/04/10 04:05:45;;;;;;;;;49.60;39.90;;;;;5.28;49.68;101586.67;479704;114;386154;-73
2021/04/10 04:06:50;;;;;;;;;49.00;41.10;;;;;5.25;50.14;101587.66;479358;114;387574;-72
2021/04/10 04:07:54;;;;;;;;;48.00;41.60;;;;;5.33;49.89;101582.92;479702;114;385634;-73
2021/04/10 04:08:58;;;;;;;;;47.10;41.00;;;;;5.41;49.69;101585.28;479702;114;385902;-72
2021/04/10 04:10:02;;;;;;;;;56.20;45.30;;;;;5.41;49.69;101585.28;479173;114;392705;-72
2021/04/10 04:11:06;;;;;;;;;51.10;42.20;;;;;5.35;50.25;101580.25;479636;114;386092;-72
2021/04/10 04:12:11;;;;;;;;;52.70;42.90;;;;;5.35;50.25;101580.25;479713;114;383989;-73
2021/04/10 04:13:15;;;;;;;;;57.60;46.10;;;;;5.33;50.43;101584.70;479364;114;387357;-71
2021/04/10 04:14:19;;;;;;;;;51.70;42.50;;;;;5.26;50.80;101584.07;479254;114;386193;-72
2021/04/10 04:15:23;;;;;;;;;50.40;40.70;;;;;5.26;50.80;101584.07;479667;114;386230;-73
2021/04/10 04:16:27;;;;;;;;;60.20;46.20;;;;;5.26;51.46;101589.34;479183;114;386001;-73
2021/04/10 04:17:31;;;;;;;;;60.20;45.70;;;;;5.26;51.46;101589.34;479383;114;387947;-73
2021/04/10 04:18:35;;;;;;;;;59.40;44.50;;;;;5.36;51.38;101591.66;479702;114;388018;-72
2021/04/10 04:19:38;;;;;;;;;65.60;50.80;;;;;5.36;51.38;101591.66;481777;112;388335;-73
2021/04/10 04:20:44;;;;;;;;;60.60;47.20;;;;;5.40;50.91;101583.55;486087;112;385912;-72
2021/04/10 04:21:48;;;;;;;;;64.90;51.20;;;;;5.40;50.91;101583.55;484347;112;386197;-71
2021/04/10 04:22:53;;;;;;;;;66.20;50.30;;;;;5.48;50.71;101588.55;486458;112;386609;-73
2021/04/10 04:23:57;;;;;;;;;60.80;48.10;;;;;5.52;51.04;101590.16;483640;112;385102;-72
2021/04/10 04:25:00;;;;;;;;;57.90;45.00;;;;;5.52;51.04;101590.16;486437;112;384339;-72
2021/04/10 04:26:04;;;;;;;;;60.60;48.80;;;;;5.57;50.72;101585.55;484307;112;386859;-71
2021/04/10 04:27:08;;;;;;;;;55.80;44.40;;;;;5.57;50.57;101589.05;486427;112;384381;-72
2021/04/10 04:28:12;;;;;;;;;61.50;48.60;;;;;5.57;50.57;101589.05;484280;112;390409;-71
2021/04/10 04:29:16;;;;;;;;;61.70;45.00;;;;;5.57;51.27;101596.10;485947;112;385738;-70
2021/04/10 04:30:23;;;;;;;;;61.90;49.40;;;;;5.57;51.27;101596.10;483662;112;385172;-72
2021/04/10 04:31:27;;;;;;;;;61.60;48.50;;;;;5.56;50.85;101589.09;485884;112;386797;-70
2021/04/10 04:32:30;;;;;;;;;64.10;51.20;;;;;5.63;50.79;101593.22;484392;112;384079;-71
2021/04/10 04:33:34;;;;;;;;;64.00;51.30;;;;;5.62;51.09;101596.77;486080;112;385654;-71
2021/04/10 04:34:38;;;;;;;;;55.90;41.80;;;;;5.69;50.79;101590.34;483871;112;385311;-70
2021/04/10 04:35:42;;;;;;;;;64.30;52.10;;;;;5.66;50.58;101599.24;484337;112;384695;-70
2021/04/10 04:36:46;;;;;;;;;62.40;51.00;;;;;5.66;50.42;101599.24;486452;112;385810;-73
2021/04/10 04:37:50;;;;;;;;;52.50;43.60;;;;;5.70;50.48;101597.34;486432;112;385285;-71
2021/04/10 04:38:54;;;;;;;;;65.70;52.50;;;;;5.61;51.26;101595.07;484278;112;392227;-70
2021/04/10 04:39:58;;;;;;;;;60.60;47.90;;;;;5.68;50.91;101593.91;484275;112;387638;-71
2021/04/10 04:41:02;;;;;;;;;61.70;50.60;;;;;5.68;50.91;101593.91;486379;112;391009;-71
2021/04/10 04:42:06;;;;;;;;;66.91;50.64;;;;;5.78;51.21;101598.75;484340;112;393465;-71
2021/04/10 04:43:10;;;;;;;;;63.80;50.80;;;;;5.13;51.16;101481.77;485638;112;392563;-70
2021/04/10 04:44:14;;;;;;;;;58.50;46.50;;;;;5.13;51.16;101481.77;484225;112;394063;-70
2021/04/10 04:45:17;;;;;;;;;41.40;28.90;;;;;5.90;51.26;101602.73;485992;112;384013;-70
2021/04/10 04:46:22;;;;;;;;;51.00;40.90;;;;;5.77;50.94;101607.61;486140;112;392703;-71
2021/04/10 04:47:26;;;;;;;;;52.10;41.60;;;;;5.85;50.84;101602.91;483930;112;394770;-70
2021/04/10 04:48:30;;;;;;;;;53.10;41.20;;;;;5.85;50.84;101602.91;486394;112;387450;-71
2021/04/10 04:49:34;;;;;;;;;43.60;38.50;;;;;5.93;50.93;101601.74;484050;112;387109;-70
2021/04/10 04:50:38;;;;;;;;;38.10;32.60;;;;;5.98;50.18;101602.41;486361;112;386084;-70
2021/04/10 04:51:42;;;;;;;;;40.40;30.50;;;;;6.01;49.96;101603.14;484376;112;384809;-71
2021/04/10 04:52:46;;;;;;;;;43.80;37.10;;;;;6.09;49.96;101606.34;486451;112;385027;-73
2021/04/10 04:53:50;;;;;;;;;43.50;36.90;;;;;6.09;49.96;101606.34;484296;112;386363;-72
2021/04/10 04:54:54;;;;;;;;;47.70;38.00;;;;;6.19;49.70;101605.02;486442;112;387581;-72
2021/04/10 04:55:57;;;;;;;;;58.30;47.50;;;;;6.25;49.51;101601.28;484347;112;385033;-73
2021/04/10 04:57:01;;;;;;;;;49.50;39.50;;;;;6.25;49.51;101601.28;486388;112;390133;-74